createdAt,value
2023-04-01T00:01:58.876Z,10.01
2023-04-01T00:04:03.863Z,10.02
2023-04-01T00:06:08.910Z,10.11
2023-04-01T00:08:13.625Z,10.09
2023-04-01T00:10:18.812Z,10.09
2023-04-01T00:12:26.478Z,10.10
2023-04-01T00:14:31.612Z,10.10
2023-04-01T00:16:36.725Z,10.13
2023-04-01T00:18:42.420Z,10.19
2023-04-01T00:20:49.178Z,10.24
2023-04-01T00:22:54.059Z,10.24
2023-04-01T00:24:58.921Z,10.31
2023-04-01T00:27:03.949Z,10.36
2023-04-01T00:29:11.475Z,10.23
2023-04-01T00:31:16.920Z,10.25
2023-04-01T00:33:22.026Z,10.19
2023-04-01T00:35:26.903Z,10.24
2023-04-01T00:37:32.252Z,10.34
2023-04-01T00:39:38.484Z,10.33
2023-04-01T00:41:43.444Z,10.31
2023-04-01T00:43:49.785Z,10.26
2023-04-01T00:45:57.361Z,10.35
2023-04-01T00:48:06.114Z,10.28
2023-04-01T00:50:11.954Z,10.29
2023-04-01T00:52:19.773Z,10.26
2023-04-01T00:54:26.588Z,10.35
2023-04-01T00:56:36.730Z,10.36
2023-04-01T00:58:46.987Z,10.34
2023-04-01T01:00:53.910Z,10.37
2023-04-01T01:03:01.523Z,10.33
2023-04-01T01:05:06.939Z,10.31
2023-04-01T01:07:24.529Z,10.33
2023-04-01T01:09:49.577Z,10.33
2023-04-01T01:12:03.016Z,10.39
2023-04-01T01:14:23.722Z,10.35
2023-04-01T01:16:31.479Z,10.34
2023-04-01T01:18:43.232Z,10.42
2023-04-01T01:21:12.827Z,10.38
2023-04-01T01:23:56.346Z,10.49
2023-04-01T01:26:17.687Z,10.46
2023-04-01T01:28:36.243Z,10.47
2023-04-01T01:30:48.170Z,10.48
2023-04-01T01:33:16.627Z,10.50
2023-04-01T01:35:31.089Z,10.46
2023-04-01T01:37:37.527Z,10.44
2023-04-01T01:39:44.628Z,10.42
2023-04-01T01:41:50.963Z,10.39
2023-04-01T01:43:59.055Z,10.37
2023-04-01T01:46:10.139Z,10.39
2023-04-01T01:48:16.379Z,10.48
2023-04-01T01:50:21.859Z,10.33
2023-04-01T01:52:32.029Z,10.34
2023-04-01T01:54:37.400Z,10.38
2023-04-01T01:56:45.486Z,10.41
2023-04-01T01:58:53.659Z,10.49
2023-04-01T02:01:02.821Z,10.36
2023-04-01T02:03:08.911Z,10.37
2023-04-01T02:05:19.636Z,10.42
2023-04-01T02:07:32.090Z,10.47
2023-04-01T02:09:37.994Z,10.56
2023-04-01T02:11:49.978Z,10.49
2023-04-01T02:14:00.036Z,10.50
2023-04-01T02:16:11.685Z,10.34
2023-04-01T02:18:18.450Z,10.36
2023-04-01T02:20:25.916Z,10.42
2023-04-01T02:22:37.670Z,10.53
2023-04-01T02:24:46.591Z,10.42
2023-04-01T02:26:52.630Z,10.39
2023-04-01T02:28:59.194Z,10.41
2023-04-01T02:31:06.324Z,10.52
2023-04-01T02:33:11.626Z,10.51
2023-04-01T02:35:18.936Z,10.47
2023-04-01T02:37:24.087Z,10.46
2023-04-01T02:39:31.431Z,10.34
2023-04-01T02:41:43.450Z,10.36
2023-04-01T02:43:48.525Z,10.37
2023-04-01T02:45:53.548Z,10.41
2023-04-01T02:47:58.542Z,10.45
2023-04-01T02:50:03.376Z,10.46
2023-04-01T02:52:08.646Z,10.44
2023-04-01T02:54:13.315Z,10.42
2023-04-01T02:56:21.111Z,10.37
2023-04-01T02:58:26.007Z,10.31
2023-04-01T03:00:31.713Z,10.26
2023-04-01T03:02:37.637Z,10.27
2023-04-01T03:04:43.067Z,10.23
2023-04-01T03:06:47.713Z,10.20
2023-04-01T03:08:52.727Z,10.22
2023-04-01T03:10:59.519Z,10.29
2023-04-01T03:13:07.814Z,10.33
2023-04-01T03:15:15.786Z,10.43
2023-04-01T03:17:20.844Z,10.31
2023-04-01T03:19:25.792Z,10.33
2023-04-01T03:21:31.894Z,10.39
2023-04-01T03:23:36.545Z,10.32
2023-04-01T03:25:41.522Z,10.37
2023-04-01T03:27:46.522Z,10.42
2023-04-01T03:29:54.110Z,10.41
2023-04-01T03:32:00.137Z,10.50
2023-04-01T03:34:05.618Z,10.47
2023-04-01T03:36:12.822Z,10.36
2023-04-01T03:38:18.967Z,10.33
2023-04-01T03:40:24.137Z,10.35
2023-04-01T03:42:29.056Z,10.31
2023-04-01T03:44:35.902Z,10.40
2023-04-01T03:46:43.791Z,10.46
2023-04-01T03:48:48.933Z,10.45
2023-04-01T03:50:53.989Z,10.46
2023-04-01T03:52:59.336Z,10.50
2023-04-01T03:55:05.206Z,10.48
2023-04-01T03:57:10.285Z,10.54
2023-04-01T03:59:16.473Z,10.59
2023-04-01T04:01:23.971Z,10.52
2023-04-01T04:03:35.261Z,10.56
2023-04-01T04:05:40.304Z,10.59
2023-04-01T04:07:45.435Z,10.59
2023-04-01T04:09:50.502Z,10.48
2023-04-01T04:11:55.236Z,10.36
2023-04-01T04:14:00.250Z,10.43
2023-04-01T04:16:05.285Z,10.32
2023-04-01T04:18:11.451Z,10.38
2023-04-01T04:20:19.497Z,10.42
2023-04-01T04:22:24.487Z,10.43
2023-04-01T04:24:30.105Z,10.44
2023-04-01T04:26:44.620Z,10.34
2023-04-01T04:28:49.811Z,10.34
2023-04-01T04:30:56.394Z,10.32
2023-04-01T04:33:01.482Z,10.41
2023-04-01T04:35:07.565Z,10.48
2023-04-01T04:37:15.772Z,10.41
2023-04-01T04:39:20.877Z,10.42
2023-04-01T04:41:26.856Z,10.37
2023-04-01T04:43:31.931Z,10.40
2023-04-01T04:45:38.338Z,10.48
2023-04-01T04:47:43.290Z,10.47
2023-04-01T04:49:48.800Z,10.45
2023-04-01T04:51:53.914Z,10.37
2023-04-01T04:54:05.399Z,10.40
2023-04-01T04:56:27.996Z,10.33
2023-04-01T04:58:42.269Z,10.38
2023-04-01T05:00:52.858Z,10.40
2023-04-01T05:03:03.382Z,10.42
2023-04-01T05:05:09.681Z,10.38
2023-04-01T05:07:15.207Z,10.28
2023-04-01T05:09:22.861Z,10.29
2023-04-01T05:11:28.898Z,10.27
2023-04-01T05:13:34.399Z,10.31
2023-04-01T05:15:40.033Z,10.34
2023-04-01T05:17:45.027Z,10.35
2023-04-01T05:19:50.142Z,10.34
2023-04-01T05:21:55.091Z,10.32
2023-04-01T05:24:00.075Z,10.35
2023-04-01T05:26:11.079Z,10.33
2023-04-01T05:28:16.841Z,10.41
2023-04-01T05:30:24.699Z,10.43
2023-04-01T05:32:38.268Z,10.30
2023-04-01T05:34:43.223Z,10.26
2023-04-01T05:36:49.310Z,10.14
2023-04-01T05:38:58.862Z,10.18
2023-04-01T05:41:09.062Z,10.16
2023-04-01T05:43:17.900Z,10.32
2023-04-01T05:45:26.232Z,10.34
2023-04-01T05:47:39.947Z,10.34
2023-04-01T05:49:45.136Z,10.38
2023-04-01T05:51:50.454Z,10.41
2023-04-01T05:53:55.535Z,10.38
2023-04-01T05:56:00.606Z,10.38
2023-04-01T05:58:08.321Z,10.39
2023-04-01T06:00:16.850Z,10.47
2023-04-01T06:02:22.454Z,10.33
2023-04-01T06:04:28.412Z,10.32
2023-04-01T06:06:35.960Z,10.12
2023-04-01T06:08:47.074Z,10.15
2023-04-01T06:10:57.063Z,10.25
2023-04-01T06:13:21.688Z,10.18
2023-04-01T06:15:54.524Z,10.01
2023-04-01T06:18:31.797Z,10.06
2023-04-01T06:20:47.655Z,10.15
2023-04-01T06:23:15.005Z,10.27
2023-04-01T06:25:35.456Z,10.28
2023-04-01T06:28:11.480Z,10.35
2023-04-01T06:30:36.442Z,10.36
2023-04-01T06:33:00.296Z,10.40
2023-04-01T06:35:26.992Z,10.58
2023-04-01T06:37:50.914Z,10.71
2023-04-01T06:40:16.395Z,10.75
2023-04-01T06:42:36.237Z,10.76
2023-04-01T06:44:59.504Z,10.81
2023-04-01T06:47:39.538Z,10.83
2023-04-01T06:50:16.404Z,11.03
2023-04-01T06:52:50.488Z,11.12
2023-04-01T06:55:29.052Z,11.16
2023-04-01T06:57:53.440Z,11.14
2023-04-01T07:00:01.227Z,11.14
2023-04-01T07:02:20.453Z,11.19
2023-04-01T07:04:33.664Z,11.24
2023-04-01T07:06:42.173Z,11.30
2023-04-01T07:08:48.819Z,11.39
2023-04-01T07:10:59.428Z,11.47
2023-04-01T07:13:28.802Z,11.51
2023-04-01T07:15:42.924Z,11.47
2023-04-01T07:17:51.296Z,11.56
2023-04-01T07:20:05.748Z,11.73
2023-04-01T07:22:31.561Z,11.67
2023-04-01T07:24:59.191Z,11.72
2023-04-01T07:27:04.768Z,11.79
2023-04-01T07:29:14.975Z,11.79
2023-04-01T07:31:56.806Z,11.78
2023-04-01T07:34:11.696Z,11.60
2023-04-01T07:36:28.508Z,11.50
2023-04-01T07:38:46.559Z,11.58
2023-04-01T07:41:04.690Z,11.55
2023-04-01T07:43:32.874Z,11.65
2023-04-01T07:46:19.090Z,11.64
2023-04-01T07:48:34.274Z,11.76
2023-04-01T07:50:53.068Z,12.02
2023-04-01T07:53:12.174Z,11.84
2023-04-01T07:55:25.136Z,12.07
2023-04-01T07:57:39.834Z,11.98
2023-04-01T07:59:57.539Z,12.08
2023-04-01T08:02:32.925Z,12.12
2023-04-01T08:04:58.596Z,12.21
2023-04-01T08:07:10.915Z,12.12
2023-04-01T08:09:29.857Z,12.14
2023-04-01T08:11:50.604Z,12.16
2023-04-01T08:14:22.996Z,12.14
2023-04-01T08:16:54.743Z,11.88
2023-04-01T08:19:19.825Z,12.05
2023-04-01T08:21:29.003Z,12.17
2023-04-01T08:23:37.313Z,12.23
2023-04-01T08:25:52.022Z,12.32
2023-04-01T08:28:00.684Z,12.12
2023-04-01T08:30:18.857Z,12.21
2023-04-01T08:32:30.004Z,12.24
2023-04-01T08:34:40.548Z,12.40
2023-04-01T08:36:56.623Z,12.41
2023-04-01T08:39:07.316Z,12.22
2023-04-01T08:41:51.601Z,12.15
2023-04-01T08:44:38.429Z,12.19
2023-04-01T08:47:07.093Z,12.30
2023-04-01T08:49:30.603Z,12.33
2023-04-01T08:51:57.567Z,12.34
2023-04-01T08:54:22.572Z,12.45
2023-04-01T08:56:31.152Z,12.29
2023-04-01T08:59:17.089Z,12.31
2023-04-01T09:01:36.975Z,12.21
2023-04-01T09:04:05.200Z,12.15
2023-04-01T09:06:43.766Z,12.07
2023-04-01T09:09:06.338Z,12.20
2023-04-01T09:11:21.160Z,12.35
2023-04-01T09:13:51.034Z,12.49
2023-04-01T09:16:16.625Z,12.57
2023-04-01T09:18:46.250Z,12.55
2023-04-01T09:21:18.092Z,12.63
2023-04-01T09:23:41.805Z,12.44
2023-04-01T09:26:01.064Z,12.48
2023-04-01T09:28:14.540Z,12.39
2023-04-01T09:30:44.532Z,12.56
2023-04-01T09:33:06.145Z,12.48
2023-04-01T09:35:24.625Z,12.52
2023-04-01T09:37:43.200Z,12.44
2023-04-01T09:40:13.145Z,12.15
2023-04-01T09:42:26.637Z,12.28
2023-04-01T09:44:50.844Z,12.29
2023-04-01T09:47:13.120Z,12.42
2023-04-01T09:49:46.513Z,12.45
2023-04-01T09:52:04.318Z,12.54
2023-04-01T09:54:22.573Z,12.55
2023-04-01T09:57:13.304Z,12.50
2023-04-01T09:59:57.373Z,12.32
2023-04-01T10:02:48.199Z,12.16
2023-04-01T10:05:32.163Z,11.86
2023-04-01T10:08:10.421Z,11.89
2023-04-01T10:10:51.462Z,12.04
2023-04-01T10:13:27.671Z,12.04
2023-04-01T10:16:09.455Z,12.23
2023-04-01T10:18:44.202Z,12.13
2023-04-01T10:21:34.319Z,11.82
2023-04-01T10:24:04.514Z,12.02
2023-04-01T10:26:37.249Z,12.25
2023-04-01T10:29:36.953Z,12.06
2023-04-01T10:32:12.176Z,12.24
2023-04-01T10:34:49.418Z,12.23
2023-04-01T10:36:59.141Z,12.27
2023-04-01T10:39:36.046Z,12.15
2023-04-01T10:42:21.126Z,12.17
2023-04-01T10:45:13.042Z,12.19
2023-04-01T10:47:59.207Z,12.29
2023-04-01T10:50:42.926Z,12.43
2023-04-01T10:53:33.250Z,12.56
2023-04-01T10:56:32.540Z,12.51
2023-04-01T10:59:28.566Z,12.39
2023-04-01T11:02:34.789Z,12.28
2023-04-01T11:05:27.474Z,12.30
2023-04-01T11:08:23.637Z,12.17
2023-04-01T11:11:15.706Z,12.40
2023-04-01T11:14:04.203Z,12.36
2023-04-01T11:16:37.465Z,12.13
2023-04-01T11:19:19.615Z,12.05
2023-04-01T11:22:02.700Z,12.02
2023-04-01T11:24:53.495Z,11.95
2023-04-01T11:27:47.005Z,11.91
2023-04-01T11:30:12.284Z,11.72
2023-04-01T11:32:32.632Z,11.48
2023-04-01T11:34:55.724Z,11.35
2023-04-01T11:37:09.597Z,11.44
2023-04-01T11:39:26.884Z,11.46
2023-04-01T11:41:47.696Z,11.54
2023-04-01T11:44:24.934Z,11.66
2023-04-01T11:47:23.162Z,11.78
2023-04-01T11:49:40.328Z,11.77
2023-04-01T11:52:19.156Z,11.78
2023-04-01T11:54:36.764Z,11.88
2023-04-01T11:56:58.547Z,11.87
2023-04-01T11:59:17.719Z,11.97
2023-04-01T12:01:58.313Z,11.96
2023-04-01T12:04:37.894Z,11.92
2023-04-01T12:06:49.056Z,12.10
2023-04-01T12:09:03.071Z,12.18
2023-04-01T12:11:18.837Z,12.39
2023-04-01T12:13:36.627Z,12.45
2023-04-01T12:15:57.256Z,12.65
2023-04-01T12:18:14.569Z,12.73
2023-04-01T12:20:37.292Z,12.67
2023-04-01T12:22:53.631Z,12.74
2023-04-01T12:25:07.591Z,12.77
2023-04-01T12:27:23.988Z,12.79
2023-04-01T12:29:59.769Z,12.71
2023-04-01T12:32:13.624Z,12.55
2023-04-01T12:34:54.093Z,12.57
2023-04-01T12:37:11.694Z,12.40
2023-04-01T12:39:35.722Z,12.45
2023-04-01T12:41:51.178Z,12.68
2023-04-01T12:44:22.592Z,12.65
2023-04-01T12:46:35.919Z,12.63
2023-04-01T12:49:04.626Z,12.69
2023-04-01T12:51:34.859Z,12.52
2023-04-01T12:53:56.758Z,12.58
2023-04-01T12:56:01.767Z,12.43
2023-04-01T12:58:34.571Z,12.41
2023-04-01T13:00:52.824Z,12.45
2023-04-01T13:03:19.048Z,12.53
2023-04-01T13:05:44.515Z,12.50
2023-04-01T13:08:06.796Z,12.69
2023-04-01T13:10:24.116Z,12.80
2023-04-01T13:12:48.265Z,12.77
2023-04-01T13:15:07.414Z,12.89
2023-04-01T13:17:19.797Z,12.83
2023-04-01T13:19:32.377Z,12.58
2023-04-01T13:21:47.128Z,12.64
2023-04-01T13:24:08.919Z,12.49
2023-04-01T13:26:22.299Z,12.64
2023-04-01T13:28:30.562Z,12.36
2023-04-01T13:30:43.391Z,12.33
2023-04-01T13:32:53.505Z,12.50
2023-04-01T13:35:14.664Z,12.49
2023-04-01T13:37:36.312Z,12.59
2023-04-01T13:40:00.722Z,12.57
2023-04-01T13:42:20.912Z,12.61
2023-04-01T13:44:34.949Z,12.77
2023-04-01T13:47:15.431Z,12.97
2023-04-01T13:50:04.931Z,12.93
2023-04-01T13:52:33.868Z,12.79
2023-04-01T13:55:02.021Z,12.72
2023-04-01T13:57:26.980Z,12.73
2023-04-01T14:00:01.343Z,12.73
2023-04-01T14:02:32.097Z,12.20
2023-04-01T14:04:57.780Z,11.97
2023-04-01T14:07:12.973Z,11.92
2023-04-01T14:09:40.811Z,11.72
2023-04-01T14:11:57.272Z,11.72
2023-04-01T14:14:09.387Z,11.74
2023-04-01T14:16:41.027Z,11.71
2023-04-01T14:19:07.530Z,11.86
2023-04-01T14:21:23.770Z,12.04
2023-04-01T14:23:54.887Z,11.88
2023-04-01T14:26:13.882Z,11.96
2023-04-01T14:28:33.603Z,11.72
2023-04-01T14:31:03.191Z,11.70
2023-04-01T14:33:22.483Z,11.84
2023-04-01T14:35:41.059Z,11.79
2023-04-01T14:38:06.675Z,11.70
2023-04-01T14:40:30.309Z,11.62
2023-04-01T14:42:53.351Z,11.75
2023-04-01T14:45:29.359Z,11.59
2023-04-01T14:47:55.194Z,11.72
2023-04-01T14:50:10.692Z,11.59
2023-04-01T14:52:20.716Z,11.45
2023-04-01T14:54:35.528Z,11.51
2023-04-01T14:56:46.071Z,11.38
2023-04-01T14:58:54.412Z,11.45
2023-04-01T15:01:21.220Z,11.32
2023-04-01T15:03:33.464Z,11.47
2023-04-01T15:05:51.716Z,11.57
2023-04-01T15:08:13.684Z,11.66
2023-04-01T15:10:39.708Z,11.61
2023-04-01T15:12:53.791Z,11.75
2023-04-01T15:15:23.973Z,11.81
2023-04-01T15:17:49.112Z,11.82
2023-04-01T15:20:09.377Z,11.76
2023-04-01T15:22:31.043Z,11.83
2023-04-01T15:24:49.966Z,11.76
2023-04-01T15:27:13.781Z,11.55
2023-04-01T15:29:51.990Z,11.50
2023-04-01T15:32:03.426Z,11.48
2023-04-01T15:34:28.285Z,11.62
2023-04-01T15:36:44.150Z,11.53
2023-04-01T15:38:52.564Z,11.19
2023-04-01T15:41:06.759Z,11.30
2023-04-01T15:43:25.832Z,11.18
2023-04-01T15:45:55.360Z,11.25
2023-04-01T15:48:05.242Z,11.33
2023-04-01T15:50:37.980Z,11.46
2023-04-01T15:52:54.074Z,11.39
2023-04-01T15:55:26.310Z,11.31
2023-04-01T15:57:42.541Z,11.19
2023-04-01T16:00:17.375Z,11.15
2023-04-01T16:02:34.450Z,11.14
2023-04-01T16:04:58.140Z,10.86
2023-04-01T16:07:19.882Z,10.94
2023-04-01T16:09:53.353Z,11.07
2023-04-01T16:12:05.855Z,11.08
2023-04-01T16:14:26.358Z,10.98
2023-04-01T16:16:43.126Z,10.99
2023-04-01T16:18:59.775Z,10.94
2023-04-01T16:21:11.066Z,10.92
2023-04-01T16:23:26.382Z,10.88
2023-04-01T16:25:38.066Z,10.98
2023-04-01T16:27:52.613Z,10.83
2023-04-01T16:30:04.591Z,10.88
2023-04-01T16:32:26.318Z,10.98
2023-04-01T16:34:36.583Z,10.85
2023-04-01T16:36:49.506Z,10.75
2023-04-01T16:39:05.966Z,10.86
2023-04-01T16:41:22.237Z,10.83
2023-04-01T16:43:32.101Z,10.82
2023-04-01T16:45:41.159Z,10.79
2023-04-01T16:47:53.193Z,10.75
2023-04-01T16:50:04.032Z,10.85
2023-04-01T16:52:18.843Z,10.82
2023-04-01T16:54:34.583Z,10.91
2023-04-01T16:56:46.230Z,10.88
2023-04-01T16:59:06.617Z,10.76
2023-04-01T17:01:17.450Z,10.53
2023-04-01T17:03:27.813Z,10.58
2023-04-01T17:05:46.307Z,10.62
2023-04-01T17:07:58.312Z,10.59
2023-04-01T17:10:22.276Z,10.73
2023-04-01T17:12:36.018Z,10.74
2023-04-01T17:14:49.888Z,10.82
2023-04-01T17:17:16.802Z,10.76
2023-04-01T17:19:36.351Z,10.78
2023-04-01T17:21:57.023Z,10.73
2023-04-01T17:24:15.220Z,10.82
2023-04-01T17:26:35.714Z,10.71
2023-04-01T17:28:50.632Z,10.74
2023-04-01T17:31:06.336Z,10.86
2023-04-01T17:33:20.146Z,10.85
2023-04-01T17:35:31.115Z,10.75
2023-04-01T17:37:50.720Z,10.68
2023-04-01T17:40:04.648Z,10.64
2023-04-01T17:42:18.617Z,10.72
2023-04-01T17:44:36.643Z,10.56
2023-04-01T17:46:59.546Z,10.53
2023-04-01T17:49:17.163Z,10.51
2023-04-01T17:51:32.694Z,10.40
2023-04-01T17:53:45.925Z,10.46
2023-04-01T17:56:01.832Z,10.47
2023-04-01T17:58:19.749Z,10.49
2023-04-01T18:00:42.200Z,10.63
2023-04-01T18:02:58.739Z,10.52
2023-04-01T18:05:24.868Z,10.63
2023-04-01T18:07:48.116Z,10.62
2023-04-01T18:10:07.802Z,10.60
2023-04-01T18:12:22.889Z,10.63
2023-04-01T18:15:03.173Z,10.47
2023-04-01T18:17:21.816Z,10.46
2023-04-01T18:19:36.505Z,10.55
2023-04-01T18:21:49.808Z,10.55
2023-04-01T18:24:02.670Z,10.54
2023-04-01T18:26:13.988Z,10.60
2023-04-01T18:28:28.654Z,10.61
2023-04-01T18:30:38.646Z,10.59
2023-04-01T18:32:51.803Z,10.62
2023-04-01T18:35:04.410Z,10.63
2023-04-01T18:37:23.093Z,10.66
2023-04-01T18:39:39.725Z,10.74
2023-04-01T18:41:55.595Z,10.70
2023-04-01T18:44:04.982Z,10.72
2023-04-01T18:46:23.444Z,10.77
2023-04-01T18:48:45.969Z,10.74
2023-04-01T18:50:57.362Z,10.63
2023-04-01T18:53:13.223Z,10.59
2023-04-01T18:55:35.580Z,10.44
2023-04-01T18:57:49.683Z,10.38
2023-04-01T18:59:57.266Z,10.37
2023-04-01T19:02:15.248Z,10.42
2023-04-01T19:04:31.920Z,10.41
2023-04-01T19:06:44.906Z,10.46
2023-04-01T19:08:49.962Z,10.47
2023-04-01T19:11:08.548Z,10.42
2023-04-01T19:13:24.028Z,10.43
2023-04-01T19:15:37.763Z,10.35
2023-04-01T19:17:58.319Z,10.41
2023-04-01T19:20:16.124Z,10.41
2023-04-01T19:22:39.581Z,10.54
2023-04-01T19:24:55.532Z,10.59
2023-04-01T19:27:07.011Z,10.61
2023-04-01T19:29:28.560Z,10.58
2023-04-01T19:31:52.061Z,10.60
2023-04-01T19:34:09.605Z,10.63
2023-04-01T19:36:20.089Z,10.65
2023-04-01T19:38:36.095Z,10.71
2023-04-01T19:40:49.263Z,10.70
2023-04-01T19:43:02.776Z,10.59
2023-04-01T19:45:24.306Z,10.65
2023-04-01T19:47:43.618Z,10.68
2023-04-01T19:50:03.708Z,10.57
2023-04-01T19:52:17.530Z,10.52
2023-04-01T19:54:33.606Z,10.56
2023-04-01T19:56:45.371Z,10.48
2023-04-01T19:58:56.002Z,10.52
2023-04-01T20:01:02.983Z,10.52
2023-04-01T20:03:15.872Z,10.47
2023-04-01T20:05:39.314Z,10.46
2023-04-01T20:07:50.940Z,10.46
2023-04-01T20:10:02.388Z,10.48
2023-04-01T20:12:14.686Z,10.51
2023-04-01T20:14:32.003Z,10.42
2023-04-01T20:16:53.238Z,10.47
2023-04-01T20:19:01.435Z,10.49
2023-04-01T20:21:19.986Z,10.45
2023-04-01T20:23:43.692Z,10.48
2023-04-01T20:25:53.769Z,10.51
2023-04-01T20:28:02.737Z,10.57
2023-04-01T20:30:31.481Z,10.54
2023-04-01T20:32:50.693Z,10.46
2023-04-01T20:35:18.200Z,10.38
2023-04-01T20:37:43.242Z,10.42
2023-04-01T20:40:06.669Z,10.42
2023-04-01T20:42:43.845Z,10.43
2023-04-01T20:44:55.466Z,10.55
2023-04-01T20:47:13.060Z,10.60
2023-04-01T20:49:34.880Z,10.53
2023-04-01T20:51:42.932Z,10.56
2023-04-01T20:53:55.181Z,10.60
2023-04-01T20:56:34.336Z,10.51
2023-04-01T20:58:52.174Z,10.53
2023-04-01T21:01:08.137Z,10.58
2023-04-01T21:03:27.830Z,10.57
2023-04-01T21:06:12.336Z,10.53
2023-04-01T21:08:28.060Z,10.50
2023-04-01T21:10:45.291Z,10.62
2023-04-01T21:12:55.050Z,10.68
2023-04-01T21:15:20.460Z,10.83
2023-04-01T21:17:41.527Z,10.81
2023-04-01T21:20:06.134Z,10.84
2023-04-01T21:22:27.140Z,10.89
2023-04-01T21:25:04.380Z,10.90
2023-04-01T21:27:20.958Z,10.85
2023-04-01T21:29:48.681Z,10.85
2023-04-01T21:32:14.726Z,10.85
2023-04-01T21:34:52.240Z,10.85
2023-04-01T21:37:12.851Z,10.82
2023-04-01T21:39:38.117Z,10.78
2023-04-01T21:42:07.343Z,10.77
2023-04-01T21:44:36.233Z,10.68
2023-04-01T21:47:05.932Z,10.60
2023-04-01T21:49:23.905Z,10.43
2023-04-01T21:52:06.129Z,10.47
2023-04-01T21:54:35.840Z,10.33
2023-04-01T21:57:07.923Z,10.32
2023-04-01T21:59:37.507Z,10.30
2023-04-01T22:02:07.182Z,10.23
2023-04-01T22:04:36.127Z,10.27
2023-04-01T22:06:45.690Z,10.33
2023-04-01T22:09:01.019Z,10.22
2023-04-01T22:11:14.520Z,10.13
2023-04-01T22:13:27.392Z,10.17
2023-04-01T22:15:46.206Z,10.15
2023-04-01T22:18:02.778Z,10.11
2023-04-01T22:20:21.339Z,10.10
2023-04-01T22:22:34.585Z,10.06
2023-04-01T22:24:52.308Z,10.04
2023-04-01T22:27:05.344Z,10.07
2023-04-01T22:29:15.061Z,10.03
2023-04-01T22:31:26.394Z,10.03
2023-04-01T22:33:42.392Z,10.08
2023-04-01T22:35:55.826Z,10.18
2023-04-01T22:38:11.602Z,10.15
2023-04-01T22:40:27.401Z,9.96
2023-04-01T22:42:46.407Z,10.03
2023-04-01T22:45:00.201Z,10.02
2023-04-01T22:47:16.160Z,10.07
2023-04-01T22:49:29.072Z,10.11
2023-04-01T22:51:47.058Z,10.18
2023-04-01T22:54:07.962Z,10.10
2023-04-01T22:56:21.957Z,10.10
2023-04-01T22:58:34.594Z,10.12
2023-04-01T23:00:44.658Z,10.13
2023-04-01T23:03:05.159Z,10.14
2023-04-01T23:05:16.747Z,10.22
2023-04-01T23:07:40.170Z,10.27
2023-04-01T23:09:45.140Z,10.35
2023-04-01T23:11:56.192Z,10.35
2023-04-01T23:14:19.660Z,10.29
2023-04-01T23:16:31.530Z,10.22
2023-04-01T23:18:41.115Z,10.19
2023-04-01T23:21:11.471Z,10.19
2023-04-01T23:23:30.973Z,10.11
2023-04-01T23:25:47.392Z,10.04
2023-04-01T23:28:00.212Z,10.12
2023-04-01T23:30:05.170Z,10.06
2023-04-01T23:32:22.060Z,10.07
2023-04-01T23:34:31.975Z,9.99
2023-04-01T23:36:42.871Z,10.10
2023-04-01T23:38:52.627Z,10.05
2023-04-01T23:40:59.006Z,9.98
2023-04-01T23:43:03.934Z,10.03
2023-04-01T23:45:20.537Z,10.05
2023-04-01T23:47:30.605Z,10.03
2023-04-01T23:49:41.015Z,10.03
2023-04-01T23:51:56.258Z,10.02
2023-04-01T23:54:05.299Z,9.98
2023-04-01T23:56:10.484Z,10.01
2023-04-01T23:58:19.043Z,9.93
